sensor_id;sensor_type;location;lat;lon;timestamp;P1;durP1;ratioP1;P2;durP2;ratioP2
52838;SDS011;39219;53.678;9.856;2023-05-10T00:02:03;7.35;;;3.90;;
52838;SDS011;39219;53.678;9.856;2023-05-10T00:04:30;6.72;;;3.70;;
52838;SDS011;39219;53.678;9.856;2023-05-10T00:06:56;8.68;;;4.20;;
52838;SDS011;39219;53.678;9.856;2023-05-10T00:09:23;7.85;;;3.95;;
52838;SDS011;39219;53.678;9.856;2023-05-10T00:11:49;6.22;;;4.03;;
52838;SDS011;39219;53.678;9.856;2023-05-10T00:14:17;8.10;;;3.80;;
52838;SDS011;39219;53.678;9.856;2023-05-10T00:16:43;10.32;;;4.30;;
52838;SDS011;39219;53.678;9.856;2023-05-10T00:19:10;8.95;;;4.22;;
52838;SDS011;39219;53.678;9.856;2023-05-10T00:21:36;7.63;;;4.05;;
52838;SDS011;39219;53.678;9.856;2023-05-10T00:24:03;8.50;;;4.22;;
52838;SDS011;39219;53.678;9.856;2023-05-10T00:26:30;6.63;;;4.07;;
52838;SDS011;39219;53.678;9.856;2023-05-10T00:28:57;7.28;;;3.90;;
52838;SDS011;39219;53.678;9.856;2023-05-10T00:31:24;8.50;;;3.80;;
52838;SDS011;39219;53.678;9.856;2023-05-10T00:33:51;7.20;;;3.90;;
52838;SDS011;39219;53.678;9.856;2023-05-10T00:36:17;8.98;;;4.03;;
52838;SDS011;39219;53.678;9.856;2023-05-10T00:38:44;7.80;;;4.35;;
52838;SDS011;39219;53.678;9.856;2023-05-10T00:41:10;8.10;;;4.63;;
52838;SDS011;39219;53.678;9.856;2023-05-10T00:43:37;7.53;;;4.25;;
52838;SDS011;39219;53.678;9.856;2023-05-10T00:46:03;9.25;;;4.20;;
52838;SDS011;39219;53.678;9.856;2023-05-10T00:48:31;7.57;;;4.25;;
52838;SDS011;39219;53.678;9.856;2023-05-10T00:50:58;6.45;;;4.07;;
52838;SDS011;39219;53.678;9.856;2023-05-10T00:53:24;6.15;;;4.00;;
52838;SDS011;39219;53.678;9.856;2023-05-10T00:55:51;7.65;;;4.10;;
52838;SDS011;39219;53.678;9.856;2023-05-10T00:58:18;7.75;;;4.30;;
52838;SDS011;39219;53.678;9.856;2023-05-10T01:00:44;8.65;;;4.50;;
52838;SDS011;39219;53.678;9.856;2023-05-10T01:03:12;7.22;;;4.10;;
52838;SDS011;39219;53.678;9.856;2023-05-10T01:05:40;6.88;;;4.15;;
52838;SDS011;39219;53.678;9.856;2023-05-10T01:08:07;9.77;;;4.30;;
52838;SDS011;39219;53.678;9.856;2023-05-10T01:10:34;8.25;;;4.15;;
52838;SDS011;39219;53.678;9.856;2023-05-10T01:13:01;8.73;;;4.30;;
52838;SDS011;39219;53.678;9.856;2023-05-10T01:15:28;7.15;;;4.30;;
52838;SDS011;39219;53.678;9.856;2023-05-10T01:17:55;7.90;;;4.13;;
52838;SDS011;39219;53.678;9.856;2023-05-10T01:20:22;7.60;;;4.32;;
52838;SDS011;39219;53.678;9.856;2023-05-10T01:25:55;6.22;;;4.10;;
52838;SDS011;39219;53.678;9.856;2023-05-10T01:28:57;8.43;;;4.50;;
52838;SDS011;39219;53.678;9.856;2023-05-10T01:34:34;6.35;;;3.95;;
52838;SDS011;39219;53.678;9.856;2023-05-10T01:37:06;7.28;;;4.38;;
52838;SDS011;39219;53.678;9.856;2023-05-10T01:39:36;9.52;;;4.68;;
52838;SDS011;39219;53.678;9.856;2023-05-10T01:42:11;7.32;;;4.30;;
52838;SDS011;39219;53.678;9.856;2023-05-10T01:44:43;7.47;;;4.20;;
52838;SDS011;39219;53.678;9.856;2023-05-10T01:47:23;7.95;;;4.30;;
52838;SDS011;39219;53.678;9.856;2023-05-10T01:49:54;7.55;;;4.35;;
52838;SDS011;39219;53.678;9.856;2023-05-10T01:52:22;8.95;;;4.80;;
52838;SDS011;39219;53.678;9.856;2023-05-10T01:54:53;8.40;;;4.40;;
52838;SDS011;39219;53.678;9.856;2023-05-10T01:57:22;8.70;;;4.50;;
52838;SDS011;39219;53.678;9.856;2023-05-10T01:59:53;7.70;;;4.22;;
52838;SDS011;39219;53.678;9.856;2023-05-10T02:02:22;8.00;;;4.53;;
52838;SDS011;39219;53.678;9.856;2023-05-10T02:04:51;7.20;;;4.28;;
52838;SDS011;39219;53.678;9.856;2023-05-10T02:07:19;7.60;;;4.40;;
52838;SDS011;39219;53.678;9.856;2023-05-10T02:09:46;7.38;;;4.40;;
52838;SDS011;39219;53.678;9.856;2023-05-10T02:12:14;9.60;;;4.30;;
52838;SDS011;39219;53.678;9.856;2023-05-10T02:14:41;7.57;;;4.53;;
52838;SDS011;39219;53.678;9.856;2023-05-10T02:17:09;7.07;;;4.50;;
52838;SDS011;39219;53.678;9.856;2023-05-10T02:19:40;9.18;;;4.50;;
52838;SDS011;39219;53.678;9.856;2023-05-10T02:22:08;6.93;;;4.32;;
52838;SDS011;39219;53.678;9.856;2023-05-10T02:24:35;6.72;;;4.45;;
52838;SDS011;39219;53.678;9.856;2023-05-10T02:27:03;7.80;;;4.30;;
52838;SDS011;39219;53.678;9.856;2023-05-10T02:29:31;8.48;;;4.32;;
52838;SDS011;39219;53.678;9.856;2023-05-10T02:31:59;10.00;;;4.95;;
52838;SDS011;39219;53.678;9.856;2023-05-10T02:34:26;8.65;;;4.50;;
52838;SDS011;39219;53.678;9.856;2023-05-10T02:36:55;9.02;;;4.50;;
52838;SDS011;39219;53.678;9.856;2023-05-10T02:39:22;6.55;;;4.13;;
52838;SDS011;39219;53.678;9.856;2023-05-10T02:41:50;7.82;;;4.47;;
52838;SDS011;39219;53.678;9.856;2023-05-10T02:44:20;6.85;;;4.22;;
52838;SDS011;39219;53.678;9.856;2023-05-10T02:46:48;8.48;;;4.05;;
52838;SDS011;39219;53.678;9.856;2023-05-10T02:49:15;8.07;;;4.50;;
52838;SDS011;39219;53.678;9.856;2023-05-10T02:51:43;8.15;;;4.40;;
52838;SDS011;39219;53.678;9.856;2023-05-10T02:54:19;7.68;;;4.65;;
52838;SDS011;39219;53.678;9.856;2023-05-10T02:56:47;7.60;;;4.50;;
52838;SDS011;39219;53.678;9.856;2023-05-10T02:59:18;9.80;;;4.63;;
52838;SDS011;39219;53.678;9.856;2023-05-10T03:01:44;8.82;;;4.57;;
52838;SDS011;39219;53.678;9.856;2023-05-10T03:04:12;6.93;;;4.10;;
52838;SDS011;39219;53.678;9.856;2023-05-10T03:06:39;7.97;;;4.78;;
52838;SDS011;39219;53.678;9.856;2023-05-10T03:09:06;8.95;;;4.70;;
52838;SDS011;39219;53.678;9.856;2023-05-10T03:11:39;10.82;;;4.60;;
52838;SDS011;39219;53.678;9.856;2023-05-10T03:14:16;9.63;;;4.55;;
52838;SDS011;39219;53.678;9.856;2023-05-10T03:16:52;9.02;;;4.72;;
52838;SDS011;39219;53.678;9.856;2023-05-10T03:19:24;11.27;;;4.70;;
52838;SDS011;39219;53.678;9.856;2023-05-10T03:21:57;8.63;;;4.80;;
52838;SDS011;39219;53.678;9.856;2023-05-10T03:24:28;9.00;;;4.47;;
52838;SDS011;39219;53.678;9.856;2023-05-10T03:26:58;7.93;;;4.50;;
52838;SDS011;39219;53.678;9.856;2023-05-10T03:29:27;8.05;;;4.57;;
52838;SDS011;39219;53.678;9.856;2023-05-10T03:31:55;10.95;;;4.80;;
52838;SDS011;39219;53.678;9.856;2023-05-10T03:34:24;10.00;;;4.55;;
52838;SDS011;39219;53.678;9.856;2023-05-10T03:36:51;7.65;;;4.40;;
52838;SDS011;39219;53.678;9.856;2023-05-10T03:39:17;9.43;;;4.75;;
52838;SDS011;39219;53.678;9.856;2023-05-10T03:41:44;10.05;;;4.70;;
52838;SDS011;39219;53.678;9.856;2023-05-10T03:44:12;8.55;;;4.97;;
52838;SDS011;39219;53.678;9.856;2023-05-10T03:46:38;7.13;;;4.55;;
52838;SDS011;39219;53.678;9.856;2023-05-10T03:49:04;7.80;;;4.60;;
52838;SDS011;39219;53.678;9.856;2023-05-10T03:51:31;8.38;;;4.28;;
52838;SDS011;39219;53.678;9.856;2023-05-10T03:53:57;10.90;;;4.60;;
52838;SDS011;39219;53.678;9.856;2023-05-10T03:56:24;8.27;;;4.53;;
52838;SDS011;39219;53.678;9.856;2023-05-10T03:58:50;8.23;;;4.60;;
52838;SDS011;39219;53.678;9.856;2023-05-10T04:01:18;9.27;;;4.85;;
52838;SDS011;39219;53.678;9.856;2023-05-10T04:03:44;7.28;;;4.45;;
52838;SDS011;39219;53.678;9.856;2023-05-10T04:06:11;8.40;;;4.38;;
52838;SDS011;39219;53.678;9.856;2023-05-10T04:08:37;7.97;;;4.78;;
52838;SDS011;39219;53.678;9.856;2023-05-10T04:11:04;8.00;;;4.47;;
52838;SDS011;39219;53.678;9.856;2023-05-10T04:13:31;8.52;;;4.68;;
52838;SDS011;39219;53.678;9.856;2023-05-10T04:15:58;9.32;;;5.03;;
52838;SDS011;39219;53.678;9.856;2023-05-10T04:18:26;7.88;;;4.82;;
52838;SDS011;39219;53.678;9.856;2023-05-10T04:20:52;9.60;;;4.85;;
52838;SDS011;39219;53.678;9.856;2023-05-10T04:23:19;7.90;;;4.55;;
52838;SDS011;39219;53.678;9.856;2023-05-10T04:25:45;12.45;;;4.78;;
52838;SDS011;39219;53.678;9.856;2023-05-10T04:28:11;12.13;;;4.80;;
52838;SDS011;39219;53.678;9.856;2023-05-10T04:30:38;13.00;;;4.68;;
52838;SDS011;39219;53.678;9.856;2023-05-10T04:33:05;7.13;;;4.50;;
52838;SDS011;39219;53.678;9.856;2023-05-10T04:35:33;10.48;;;4.65;;
52838;SDS011;39219;53.678;9.856;2023-05-10T04:38:00;10.15;;;4.80;;
52838;SDS011;39219;53.678;9.856;2023-05-10T04:40:27;11.93;;;4.85;;
52838;SDS011;39219;53.678;9.856;2023-05-10T04:42:53;8.43;;;4.63;;
52838;SDS011;39219;53.678;9.856;2023-05-10T04:45:20;9.98;;;4.88;;
52838;SDS011;39219;53.678;9.856;2023-05-10T04:47:47;8.13;;;4.35;;
52838;SDS011;39219;53.678;9.856;2023-05-10T04:50:13;10.02;;;4.70;;
52838;SDS011;39219;53.678;9.856;2023-05-10T04:52:41;8.50;;;4.40;;
52838;SDS011;39219;53.678;9.856;2023-05-10T04:55:08;6.78;;;4.50;;
52838;SDS011;39219;53.678;9.856;2023-05-10T04:57:34;7.47;;;4.57;;
52838;SDS011;39219;53.678;9.856;2023-05-10T05:00:01;9.55;;;4.40;;
52838;SDS011;39219;53.678;9.856;2023-05-10T05:02:28;6.53;;;4.40;;
52838;SDS011;39219;53.678;9.856;2023-05-10T05:04:55;7.13;;;4.47;;
52838;SDS011;39219;53.678;9.856;2023-05-10T05:07:22;8.88;;;4.90;;
52838;SDS011;39219;53.678;9.856;2023-05-10T05:09:50;8.40;;;4.90;;
52838;SDS011;39219;53.678;9.856;2023-05-10T05:12:17;8.63;;;4.50;;
52838;SDS011;39219;53.678;9.856;2023-05-10T05:14:43;7.45;;;4.88;;
52838;SDS011;39219;53.678;9.856;2023-05-10T05:17:10;8.32;;;4.50;;
52838;SDS011;39219;53.678;9.856;2023-05-10T05:19:36;7.78;;;4.40;;
52838;SDS011;39219;53.678;9.856;2023-05-10T05:22:03;8.68;;;4.72;;
52838;SDS011;39219;53.678;9.856;2023-05-10T05:24:32;8.35;;;4.55;;
52838;SDS011;39219;53.678;9.856;2023-05-10T05:27:02;8.32;;;4.40;;
52838;SDS011;39219;53.678;9.856;2023-05-10T05:29:29;6.88;;;4.30;;
52838;SDS011;39219;53.678;9.856;2023-05-10T05:31:55;6.85;;;4.22;;
52838;SDS011;39219;53.678;9.856;2023-05-10T05:34:22;7.88;;;4.38;;
52838;SDS011;39219;53.678;9.856;2023-05-10T05:36:49;7.15;;;4.18;;
52838;SDS011;39219;53.678;9.856;2023-05-10T05:39:16;6.05;;;4.10;;
52838;SDS011;39219;53.678;9.856;2023-05-10T05:41:42;7.40;;;4.30;;
52838;SDS011;39219;53.678;9.856;2023-05-10T05:44:10;7.53;;;4.40;;
52838;SDS011;39219;53.678;9.856;2023-05-10T05:46:37;7.53;;;4.50;;
52838;SDS011;39219;53.678;9.856;2023-05-10T05:49:03;7.18;;;4.15;;
52838;SDS011;39219;53.678;9.856;2023-05-10T05:51:30;7.47;;;3.97;;
52838;SDS011;39219;53.678;9.856;2023-05-10T05:53:57;6.63;;;4.07;;
52838;SDS011;39219;53.678;9.856;2023-05-10T05:56:23;7.82;;;4.15;;
52838;SDS011;39219;53.678;9.856;2023-05-10T05:58:50;6.57;;;3.83;;
52838;SDS011;39219;53.678;9.856;2023-05-10T06:01:18;8.05;;;4.25;;
52838;SDS011;39219;53.678;9.856;2023-05-10T06:03:44;9.40;;;4.50;;
52838;SDS011;39219;53.678;9.856;2023-05-10T06:06:11;6.22;;;4.07;;
52838;SDS011;39219;53.678;9.856;2023-05-10T06:08:38;7.75;;;4.30;;
52838;SDS011;39219;53.678;9.856;2023-05-10T06:11:04;7.97;;;4.40;;
52838;SDS011;39219;53.678;9.856;2023-05-10T06:13:31;6.55;;;4.20;;
52838;SDS011;39219;53.678;9.856;2023-05-10T06:16:00;8.07;;;4.40;;
52838;SDS011;39219;53.678;9.856;2023-05-10T06:18:28;6.47;;;4.10;;
52838;SDS011;39219;53.678;9.856;2023-05-10T06:20:54;9.65;;;4.53;;
52838;SDS011;39219;53.678;9.856;2023-05-10T06:23:21;9.32;;;4.38;;
52838;SDS011;39219;53.678;9.856;2023-05-10T06:25:47;6.22;;;4.22;;
52838;SDS011;39219;53.678;9.856;2023-05-10T06:28:14;7.95;;;4.50;;
52838;SDS011;39219;53.678;9.856;2023-05-10T06:30:40;7.85;;;4.35;;
52838;SDS011;39219;53.678;9.856;2023-05-10T06:33:06;9.85;;;4.60;;
52838;SDS011;39219;53.678;9.856;2023-05-10T06:35:34;9.00;;;4.50;;
52838;SDS011;39219;53.678;9.856;2023-05-10T06:38:01;13.23;;;4.55;;
52838;SDS011;39219;53.678;9.856;2023-05-10T06:40:28;8.13;;;4.30;;
52838;SDS011;39219;53.678;9.856;2023-05-10T06:42:54;8.90;;;4.78;;
52838;SDS011;39219;53.678;9.856;2023-05-10T06:45:21;8.07;;;4.70;;
52838;SDS011;39219;53.678;9.856;2023-05-10T06:47:47;8.82;;;4.50;;
52838;SDS011;39219;53.678;9.856;2023-05-10T06:50:14;8.73;;;4.68;;
52838;SDS011;39219;53.678;9.856;2023-05-10T06:52:42;8.02;;;4.43;;
52838;SDS011;39219;53.678;9.856;2023-05-10T06:55:08;7.50;;;4.50;;
52838;SDS011;39219;53.678;9.856;2023-05-10T06:57:35;7.55;;;4.97;;
52838;SDS011;39219;53.678;9.856;2023-05-10T07:00:02;7.97;;;4.70;;
52838;SDS011;39219;53.678;9.856;2023-05-10T07:02:30;7.30;;;4.45;;
52838;SDS011;39219;53.678;9.856;2023-05-10T07:04:56;8.90;;;4.50;;
52838;SDS011;39219;53.678;9.856;2023-05-10T07:07:23;10.13;;;4.80;;
52838;SDS011;39219;53.678;9.856;2023-05-10T07:09:50;8.20;;;4.50;;
52838;SDS011;39219;53.678;9.856;2023-05-10T07:12:17;7.75;;;4.70;;
52838;SDS011;39219;53.678;9.856;2023-05-10T07:14:44;8.00;;;4.55;;
52838;SDS011;39219;53.678;9.856;2023-05-10T07:17:10;7.72;;;4.57;;
52838;SDS011;39219;53.678;9.856;2023-05-10T07:19:37;7.82;;;4.60;;
52838;SDS011;39219;53.678;9.856;2023-05-10T07:22:03;8.50;;;4.70;;
52838;SDS011;39219;53.678;9.856;2023-05-10T07:24:30;8.07;;;4.32;;
52838;SDS011;39219;53.678;9.856;2023-05-10T07:26:58;9.23;;;4.63;;
52838;SDS011;39219;53.678;9.856;2023-05-10T07:29:25;7.72;;;4.47;;
52838;SDS011;39219;53.678;9.856;2023-05-10T07:31:52;8.05;;;4.45;;
52838;SDS011;39219;53.678;9.856;2023-05-10T07:34:18;7.97;;;4.60;;
52838;SDS011;39219;53.678;9.856;2023-05-10T07:36:45;8.40;;;4.50;;
52838;SDS011;39219;53.678;9.856;2023-05-10T07:39:11;8.65;;;4.75;;
52838;SDS011;39219;53.678;9.856;2023-05-10T07:41:37;6.93;;;4.70;;
52838;SDS011;39219;53.678;9.856;2023-05-10T07:44:05;6.85;;;4.60;;
52838;SDS011;39219;53.678;9.856;2023-05-10T07:46:32;10.57;;;4.80;;
52838;SDS011;39219;53.678;9.856;2023-05-10T07:48:59;9.00;;;5.00;;
52838;SDS011;39219;53.678;9.856;2023-05-10T07:51:25;11.32;;;4.85;;
52838;SDS011;39219;53.678;9.856;2023-05-10T07:53:53;7.97;;;4.80;;
52838;SDS011;39219;53.678;9.856;2023-05-10T07:56:20;8.00;;;4.72;;
52838;SDS011;39219;53.678;9.856;2023-05-10T07:58:48;9.20;;;5.25;;
52838;SDS011;39219;53.678;9.856;2023-05-10T08:01:16;9.27;;;4.95;;
52838;SDS011;39219;53.678;9.856;2023-05-10T08:03:42;8.45;;;5.35;;
52838;SDS011;39219;53.678;9.856;2023-05-10T08:06:09;8.43;;;4.70;;
52838;SDS011;39219;53.678;9.856;2023-05-10T08:08:35;7.70;;;4.70;;
52838;SDS011;39219;53.678;9.856;2023-05-10T08:11:01;8.65;;;4.95;;
52838;SDS011;39219;53.678;9.856;2023-05-10T08:13:29;10.02;;;5.13;;
52838;SDS011;39219;53.678;9.856;2023-05-10T08:15:56;6.85;;;4.78;;
52838;SDS011;39219;53.678;9.856;2023-05-10T08:18:24;8.38;;;4.50;;
52838;SDS011;39219;53.678;9.856;2023-05-10T08:20:51;11.90;;;5.10;;
52838;SDS011;39219;53.678;9.856;2023-05-10T08:23:17;9.13;;;5.07;;
52838;SDS011;39219;53.678;9.856;2023-05-10T08:25:43;8.32;;;5.10;;
52838;SDS011;39219;53.678;9.856;2023-05-10T08:28:10;9.68;;;4.93;;
52838;SDS011;39219;53.678;9.856;2023-05-10T08:30:37;7.65;;;5.07;;
52838;SDS011;39219;53.678;9.856;2023-05-10T08:33:03;8.95;;;5.07;;
52838;SDS011;39219;53.678;9.856;2023-05-10T08:35:31;9.85;;;5.55;;
52838;SDS011;39219;53.678;9.856;2023-05-10T08:37:59;9.68;;;4.82;;
52838;SDS011;39219;53.678;9.856;2023-05-10T08:40:26;8.95;;;4.78;;
52838;SDS011;39219;53.678;9.856;2023-05-10T08:42:54;10.35;;;5.10;;
52838;SDS011;39219;53.678;9.856;2023-05-10T08:45:27;9.57;;;5.10;;
52838;SDS011;39219;53.678;9.856;2023-05-10T08:47:58;8.38;;;4.82;;
52838;SDS011;39219;53.678;9.856;2023-05-10T08:50:27;8.85;;;5.28;;
52838;SDS011;39219;53.678;9.856;2023-05-10T08:52:57;8.35;;;5.15;;
52838;SDS011;39219;53.678;9.856;2023-05-10T08:55:28;10.52;;;5.30;;
52838;SDS011;39219;53.678;9.856;2023-05-10T08:57:55;10.77;;;5.72;;
52838;SDS011;39219;53.678;9.856;2023-05-10T09:00:21;9.13;;;5.30;;
52838;SDS011;39219;53.678;9.856;2023-05-10T09:02:49;12.10;;;5.78;;
52838;SDS011;39219;53.678;9.856;2023-05-10T09:05:16;8.88;;;4.95;;
52838;SDS011;39219;53.678;9.856;2023-05-10T09:07:42;11.18;;;5.22;;
52838;SDS011;39219;53.678;9.856;2023-05-10T09:10:11;8.50;;;5.05;;
52838;SDS011;39219;53.678;9.856;2023-05-10T09:12:37;8.98;;;5.07;;
52838;SDS011;39219;53.678;9.856;2023-05-10T09:15:05;12.63;;;6.30;;
52838;SDS011;39219;53.678;9.856;2023-05-10T09:17:33;16.13;;;5.60;;
52838;SDS011;39219;53.678;9.856;2023-05-10T09:20:00;8.57;;;5.03;;
52838;SDS011;39219;53.678;9.856;2023-05-10T09:22:27;9.95;;;5.25;;
52838;SDS011;39219;53.678;9.856;2023-05-10T09:25:03;16.50;;;6.13;;
52838;SDS011;39219;53.678;9.856;2023-05-10T09:27:32;8.98;;;5.75;;
52838;SDS011;39219;53.678;9.856;2023-05-10T09:29:58;12.05;;;6.00;;
52838;SDS011;39219;53.678;9.856;2023-05-10T09:32:35;14.07;;;6.10;;
52838;SDS011;39219;53.678;9.856;2023-05-10T09:35:05;19.10;;;6.22;;
52838;SDS011;39219;53.678;9.856;2023-05-10T09:37:33;12.40;;;5.93;;
52838;SDS011;39219;53.678;9.856;2023-05-10T09:39:59;12.18;;;6.40;;
52838;SDS011;39219;53.678;9.856;2023-05-10T09:42:26;9.65;;;5.70;;
52838;SDS011;39219;53.678;9.856;2023-05-10T09:44:54;10.13;;;6.43;;
52838;SDS011;39219;53.678;9.856;2023-05-10T09:47:26;15.43;;;6.13;;
52838;SDS011;39219;53.678;9.856;2023-05-10T09:49:52;11.05;;;6.07;;
52838;SDS011;39219;53.678;9.856;2023-05-10T09:52:21;11.13;;;6.30;;
52838;SDS011;39219;53.678;9.856;2023-05-10T09:54:52;10.05;;;6.57;;
52838;SDS011;39219;53.678;9.856;2023-05-10T09:57:20;13.07;;;7.15;;
52838;SDS011;39219;53.678;9.856;2023-05-10T09:59:47;10.90;;;6.53;;
52838;SDS011;39219;53.678;9.856;2023-05-10T10:02:15;10.15;;;6.57;;
52838;SDS011;39219;53.678;9.856;2023-05-10T10:04:42;12.25;;;7.00;;
52838;SDS011;39219;53.678;9.856;2023-05-10T10:07:09;11.45;;;7.32;;
52838;SDS011;39219;53.678;9.856;2023-05-10T10:09:35;10.90;;;6.40;;
52838;SDS011;39219;53.678;9.856;2023-05-10T10:12:02;11.38;;;6.72;;
52838;SDS011;39219;53.678;9.856;2023-05-10T10:14:29;11.20;;;6.82;;
52838;SDS011;39219;53.678;9.856;2023-05-10T10:16:56;12.25;;;7.15;;
52838;SDS011;39219;53.678;9.856;2023-05-10T10:19:24;12.43;;;7.30;;
52838;SDS011;39219;53.678;9.856;2023-05-10T10:21:52;11.63;;;7.15;;
52838;SDS011;39219;53.678;9.856;2023-05-10T10:24:18;13.70;;;7.55;;
52838;SDS011;39219;53.678;9.856;2023-05-10T10:26:45;12.70;;;7.75;;
52838;SDS011;39219;53.678;9.856;2023-05-10T10:29:18;12.50;;;7.78;;
52838;SDS011;39219;53.678;9.856;2023-05-10T10:31:51;13.77;;;8.50;;
52838;SDS011;39219;53.678;9.856;2023-05-10T10:34:29;12.30;;;7.95;;
52838;SDS011;39219;53.678;9.856;2023-05-10T10:36:57;14.50;;;8.63;;
52838;SDS011;39219;53.678;9.856;2023-05-10T10:39:29;14.52;;;9.48;;
52838;SDS011;39219;53.678;9.856;2023-05-10T10:41:57;17.65;;;8.90;;
52838;SDS011;39219;53.678;9.856;2023-05-10T10:44:25;13.02;;;8.70;;
52838;SDS011;39219;53.678;9.856;2023-05-10T10:47:00;15.32;;;8.85;;
52838;SDS011;39219;53.678;9.856;2023-05-10T10:49:32;15.27;;;8.65;;
52838;SDS011;39219;53.678;9.856;2023-05-10T10:54:59;13.68;;;7.95;;
52838;SDS011;39219;53.678;9.856;2023-05-10T10:57:27;14.38;;;8.57;;
52838;SDS011;39219;53.678;9.856;2023-05-10T11:02:53;13.98;;;9.40;;
52838;SDS011;39219;53.678;9.856;2023-05-10T11:08:18;13.38;;;8.82;;
52838;SDS011;39219;53.678;9.856;2023-05-10T11:13:38;15.88;;;9.57;;
52838;SDS011;39219;53.678;9.856;2023-05-10T11:16:10;16.05;;;9.75;;
52838;SDS011;39219;53.678;9.856;2023-05-10T11:21:19;15.55;;;9.35;;
52838;SDS011;39219;53.678;9.856;2023-05-10T11:23:49;15.40;;;9.45;;
52838;SDS011;39219;53.678;9.856;2023-05-10T11:26:16;13.95;;;9.68;;
52838;SDS011;39219;53.678;9.856;2023-05-10T11:28:43;15.15;;;10.38;;
52838;SDS011;39219;53.678;9.856;2023-05-10T11:31:11;15.55;;;10.82;;
52838;SDS011;39219;53.678;9.856;2023-05-10T11:33:42;17.15;;;10.80;;
52838;SDS011;39219;53.678;9.856;2023-05-10T11:36:10;16.27;;;10.23;;
52838;SDS011;39219;53.678;9.856;2023-05-10T11:38:38;18.23;;;10.07;;
52838;SDS011;39219;53.678;9.856;2023-05-10T11:41:05;17.45;;;11.27;;
52838;SDS011;39219;53.678;9.856;2023-05-10T11:43:33;18.27;;;10.82;;
52838;SDS011;39219;53.678;9.856;2023-05-10T11:46:01;18.33;;;11.23;;
52838;SDS011;39219;53.678;9.856;2023-05-10T11:48:29;16.80;;;10.23;;
52838;SDS011;39219;53.678;9.856;2023-05-10T11:50:56;15.85;;;10.73;;
52838;SDS011;39219;53.678;9.856;2023-05-10T11:53:23;13.75;;;9.77;;
52838;SDS011;39219;53.678;9.856;2023-05-10T11:55:50;17.63;;;9.23;;
52838;SDS011;39219;53.678;9.856;2023-05-10T11:58:17;13.45;;;8.93;;
52838;SDS011;39219;53.678;9.856;2023-05-10T12:00:46;15.07;;;9.68;;
52838;SDS011;39219;53.678;9.856;2023-05-10T12:03:13;16.50;;;10.32;;
52838;SDS011;39219;53.678;9.856;2023-05-10T12:05:40;15.85;;;10.43;;
52838;SDS011;39219;53.678;9.856;2023-05-10T12:08:10;15.73;;;10.02;;
52838;SDS011;39219;53.678;9.856;2023-05-10T12:10:37;13.73;;;9.07;;
52838;SDS011;39219;53.678;9.856;2023-05-10T12:13:05;14.90;;;9.30;;
52838;SDS011;39219;53.678;9.856;2023-05-10T12:15:37;14.05;;;9.65;;
52838;SDS011;39219;53.678;9.856;2023-05-10T12:18:03;13.60;;;9.27;;
52838;SDS011;39219;53.678;9.856;2023-05-10T12:20:30;14.32;;;9.30;;
52838;SDS011;39219;53.678;9.856;2023-05-10T12:22:57;14.23;;;9.40;;
52838;SDS011;39219;53.678;9.856;2023-05-10T12:25:29;15.90;;;9.07;;
52838;SDS011;39219;53.678;9.856;2023-05-10T12:27:58;13.43;;;8.30;;
52838;SDS011;39219;53.678;9.856;2023-05-10T12:30:27;12.40;;;7.35;;
52838;SDS011;39219;53.678;9.856;2023-05-10T12:32:59;10.57;;;6.40;;
52838;SDS011;39219;53.678;9.856;2023-05-10T12:35:29;11.27;;;6.75;;
52838;SDS011;39219;53.678;9.856;2023-05-10T12:37:56;10.32;;;6.78;;
52838;SDS011;39219;53.678;9.856;2023-05-10T12:40:22;11.55;;;7.07;;
52838;SDS011;39219;53.678;9.856;2023-05-10T12:42:49;11.40;;;7.07;;
52838;SDS011;39219;53.678;9.856;2023-05-10T12:45:17;12.13;;;7.35;;
52838;SDS011;39219;53.678;9.856;2023-05-10T12:47:45;11.38;;;7.72;;
52838;SDS011;39219;53.678;9.856;2023-05-10T12:50:11;11.82;;;7.55;;
52838;SDS011;39219;53.678;9.856;2023-05-10T12:52:38;11.38;;;7.35;;
52838;SDS011;39219;53.678;9.856;2023-05-10T12:55:05;11.40;;;7.65;;
52838;SDS011;39219;53.678;9.856;2023-05-10T12:57:31;12.55;;;8.00;;
52838;SDS011;39219;53.678;9.856;2023-05-10T12:59:58;13.23;;;7.38;;
52838;SDS011;39219;53.678;9.856;2023-05-10T13:02:24;10.30;;;6.55;;
52838;SDS011;39219;53.678;9.856;2023-05-10T13:04:52;11.15;;;6.43;;
52838;SDS011;39219;53.678;9.856;2023-05-10T13:07:19;9.02;;;6.03;;
52838;SDS011;39219;53.678;9.856;2023-05-10T13:09:45;9.18;;;5.85;;
52838;SDS011;39219;53.678;9.856;2023-05-10T13:12:12;9.27;;;5.95;;
52838;SDS011;39219;53.678;9.856;2023-05-10T13:14:38;10.68;;;6.20;;
52838;SDS011;39219;53.678;9.856;2023-05-10T13:17:06;8.70;;;6.05;;
52838;SDS011;39219;53.678;9.856;2023-05-10T13:19:33;9.80;;;6.05;;
52838;SDS011;39219;53.678;9.856;2023-05-10T13:22:01;8.85;;;5.22;;
52838;SDS011;39219;53.678;9.856;2023-05-10T13:24:27;10.27;;;7.22;;
52838;SDS011;39219;53.678;9.856;2023-05-10T13:26:54;10.20;;;6.60;;
52838;SDS011;39219;53.678;9.856;2023-05-10T13:29:20;10.70;;;6.90;;
52838;SDS011;39219;53.678;9.856;2023-05-10T13:31:47;10.02;;;6.78;;
52838;SDS011;39219;53.678;9.856;2023-05-10T13:34:14;9.68;;;6.90;;
52838;SDS011;39219;53.678;9.856;2023-05-10T13:36:40;11.63;;;7.25;;
52838;SDS011;39219;53.678;9.856;2023-05-10T13:39:08;10.57;;;7.28;;
52838;SDS011;39219;53.678;9.856;2023-05-10T13:41:34;11.75;;;7.05;;
52838;SDS011;39219;53.678;9.856;2023-05-10T13:44:01;10.07;;;6.60;;
52838;SDS011;39219;53.678;9.856;2023-05-10T13:46:28;10.30;;;7.15;;
52838;SDS011;39219;53.678;9.856;2023-05-10T13:48:55;9.80;;;6.80;;
52838;SDS011;39219;53.678;9.856;2023-05-10T13:51:21;10.38;;;7.30;;
52838;SDS011;39219;53.678;9.856;2023-05-10T13:53:48;11.80;;;7.50;;
52838;SDS011;39219;53.678;9.856;2023-05-10T13:56:16;11.02;;;7.35;;
52838;SDS011;39219;53.678;9.856;2023-05-10T13:58:42;10.85;;;7.53;;
52838;SDS011;39219;53.678;9.856;2023-05-10T14:01:09;10.52;;;7.18;;
52838;SDS011;39219;53.678;9.856;2023-05-10T14:03:36;10.95;;;7.07;;
52838;SDS011;39219;53.678;9.856;2023-05-10T14:06:03;11.45;;;7.38;;
52838;SDS011;39219;53.678;9.856;2023-05-10T14:08:30;11.85;;;7.53;;
52838;SDS011;39219;53.678;9.856;2023-05-10T14:10:56;12.90;;;8.05;;
52838;SDS011;39219;53.678;9.856;2023-05-10T14:13:24;11.65;;;8.07;;
52838;SDS011;39219;53.678;9.856;2023-05-10T14:15:51;10.45;;;7.30;;
52838;SDS011;39219;53.678;9.856;2023-05-10T14:18:18;9.75;;;6.82;;
52838;SDS011;39219;53.678;9.856;2023-05-10T14:20:45;10.82;;;7.15;;
52838;SDS011;39219;53.678;9.856;2023-05-10T14:23:11;10.27;;;7.10;;
52838;SDS011;39219;53.678;9.856;2023-05-10T14:25:39;10.65;;;7.15;;
52838;SDS011;39219;53.678;9.856;2023-05-10T14:28:06;11.52;;;7.20;;
52838;SDS011;39219;53.678;9.856;2023-05-10T14:30:33;11.35;;;8.10;;
52838;SDS011;39219;53.678;9.856;2023-05-10T14:33:00;11.85;;;7.75;;
52838;SDS011;39219;53.678;9.856;2023-05-10T14:35:27;11.57;;;7.70;;
52838;SDS011;39219;53.678;9.856;2023-05-10T14:37:55;13.18;;;7.82;;
52838;SDS011;39219;53.678;9.856;2023-05-10T14:40:22;10.73;;;7.47;;
52838;SDS011;39219;53.678;9.856;2023-05-10T14:42:49;11.77;;;7.78;;
52838;SDS011;39219;53.678;9.856;2023-05-10T14:45:17;9.73;;;7.10;;
52838;SDS011;39219;53.678;9.856;2023-05-10T14:47:45;10.15;;;7.28;;
52838;SDS011;39219;53.678;9.856;2023-05-10T14:50:12;10.88;;;7.60;;
52838;SDS011;39219;53.678;9.856;2023-05-10T14:52:38;10.30;;;7.47;;
52838;SDS011;39219;53.678;9.856;2023-05-10T14:55:05;10.70;;;7.70;;
52838;SDS011;39219;53.678;9.856;2023-05-10T14:57:32;10.15;;;7.18;;
52838;SDS011;39219;53.678;9.856;2023-05-10T14:59:59;10.40;;;7.22;;
52838;SDS011;39219;53.678;9.856;2023-05-10T15:02:25;9.00;;;6.80;;
52838;SDS011;39219;53.678;9.856;2023-05-10T15:04:53;9.55;;;6.95;;